createdAt,value
2023-03-08T00:02:22.523Z,99.96
2023-03-08T00:05:25.441Z,99.76
2023-03-08T00:08:28.605Z,100.00
2023-03-08T00:11:31.403Z,100.00
2023-03-08T00:14:33.420Z,100.00
2023-03-08T00:17:37.653Z,100.00
2023-03-08T00:20:42.004Z,100.00
2023-03-08T00:23:46.586Z,100.00
2023-03-08T00:26:51.016Z,100.00
2023-03-08T00:29:52.816Z,100.00
2023-03-08T00:32:55.100Z,100.00
2023-03-08T00:35:59.193Z,100.00
2023-03-08T00:39:04.750Z,100.00
2023-03-08T00:42:07.749Z,100.00
2023-03-08T00:45:11.890Z,100.00
2023-03-08T00:48:14.665Z,100.00
2023-03-08T00:51:18.409Z,100.00
2023-03-08T00:54:22.048Z,100.00
2023-03-08T00:57:23.812Z,100.00
2023-03-08T01:00:26.350Z,100.00
2023-03-08T01:03:28.551Z,100.00
2023-03-08T01:06:30.887Z,100.00
2023-03-08T01:09:41.449Z,100.00
2023-03-08T01:12:44.426Z,100.00
2023-03-08T01:15:46.969Z,100.00
2023-03-08T01:18:51.679Z,100.00
2023-03-08T01:21:55.961Z,100.00
2023-03-08T01:25:00.952Z,100.00
2023-03-08T01:28:02.852Z,100.00
2023-03-08T01:31:07.592Z,100.00
2023-03-08T01:34:09.887Z,100.00
2023-03-08T01:37:11.912Z,100.00
2023-03-08T01:40:16.206Z,100.00
2023-03-08T01:43:24.483Z,100.00
2023-03-08T01:46:28.987Z,100.00
2023-03-08T01:49:38.430Z,100.00
2023-03-08T01:52:42.188Z,100.00
2023-03-08T01:55:45.569Z,100.00
2023-03-08T01:58:50.899Z,100.00
2023-03-08T02:01:53.949Z,100.00
2023-03-08T02:04:55.718Z,100.00
2023-03-08T02:07:58.494Z,100.00
2023-03-08T02:11:02.427Z,100.00
2023-03-08T02:14:04.288Z,100.00
2023-03-08T02:17:06.359Z,100.00
2023-03-08T02:20:14.910Z,100.00
2023-03-08T02:23:21.764Z,100.00
2023-03-08T02:26:24.408Z,100.00
2023-03-08T02:29:28.370Z,100.00
2023-03-08T02:32:30.374Z,100.00
2023-03-08T02:35:33.418Z,100.00
2023-03-08T02:38:37.479Z,100.00
2023-03-08T02:41:41.339Z,100.00
2023-03-08T02:44:45.689Z,100.00
2023-03-08T02:47:55.822Z,100.00
2023-03-08T02:50:57.615Z,100.00
2023-03-08T02:54:00.977Z,100.00
2023-03-08T02:57:05.934Z,100.00
2023-03-08T03:00:10.289Z,100.00
2023-03-08T03:03:13.286Z,100.00
2023-03-08T03:06:17.047Z,100.00
2023-03-08T03:09:20.547Z,100.00
2023-03-08T03:12:22.348Z,100.00
2023-03-08T03:15:30.541Z,100.00
2023-03-08T03:18:32.537Z,100.00
2023-03-08T03:21:34.689Z,100.00
2023-03-08T03:24:38.084Z,100.00
2023-03-08T03:27:40.726Z,100.00
2023-03-08T03:30:43.300Z,100.00
2023-03-08T03:33:45.722Z,100.00
2023-03-08T03:36:48.022Z,100.00
2023-03-08T03:39:54.505Z,100.00
2023-03-08T03:42:56.684Z,100.00
2023-03-08T03:45:59.947Z,100.00
2023-03-08T03:49:03.260Z,100.00
2023-03-08T03:52:08.761Z,100.00
2023-03-08T03:55:12.867Z,100.00
2023-03-08T03:58:17.239Z,100.00
2023-03-08T04:01:21.092Z,100.00
2023-03-08T04:04:23.915Z,100.00
2023-03-08T04:07:26.105Z,100.00
2023-03-08T04:10:31.422Z,100.00
2023-03-08T04:13:35.546Z,100.00
2023-03-08T04:16:39.966Z,100.00
2023-03-08T04:19:43.481Z,100.00
2023-03-08T04:22:46.125Z,100.00
2023-03-08T04:25:49.986Z,100.00
2023-03-08T04:28:52.166Z,100.00
2023-03-08T04:31:55.201Z,100.00
2023-03-08T04:34:57.211Z,100.00
2023-03-08T04:37:59.085Z,100.00
2023-03-08T04:41:02.433Z,100.00
2023-03-08T04:44:04.626Z,100.00
2023-03-08T04:47:06.752Z,100.00
2023-03-08T04:50:09.697Z,100.00
2023-03-08T04:53:11.977Z,100.00
2023-03-08T04:56:19.046Z,100.00
2023-03-08T04:59:20.865Z,100.00
2023-03-08T05:02:24.143Z,100.00
2023-03-08T05:05:26.291Z,100.00
2023-03-08T05:08:28.077Z,100.00
2023-03-08T05:11:34.601Z,100.00
2023-03-08T05:14:39.270Z,99.65
2023-03-08T05:17:43.451Z,98.97
2023-03-08T05:20:47.999Z,98.80
2023-03-08T05:23:50.148Z,98.92
2023-03-08T05:26:53.464Z,98.75
2023-03-08T05:29:55.373Z,98.08
2023-03-08T05:32:57.898Z,97.49
2023-03-08T05:35:59.996Z,98.16
2023-03-08T05:39:02.459Z,97.91
2023-03-08T05:42:06.780Z,97.91
2023-03-08T05:45:09.673Z,97.55
2023-03-08T05:48:12.554Z,96.65
2023-03-08T05:51:16.185Z,95.54
2023-03-08T05:54:19.198Z,95.69
2023-03-08T05:57:22.604Z,95.22
2023-03-08T06:00:25.978Z,95.60
2023-03-08T06:03:28.842Z,94.51
2023-03-08T06:06:30.640Z,95.44
2023-03-08T06:09:35.502Z,94.69
2023-03-08T06:12:38.896Z,95.75
2023-03-08T06:15:41.142Z,95.73
2023-03-08T06:18:46.295Z,96.79
2023-03-08T06:21:50.507Z,96.54
2023-03-08T06:24:53.003Z,96.78
2023-03-08T06:27:56.425Z,97.35
2023-03-08T06:30:58.353Z,96.55
2023-03-08T06:34:02.719Z,96.50
2023-03-08T06:37:04.994Z,96.46
2023-03-08T06:40:11.183Z,96.74
2023-03-08T06:43:17.727Z,96.51
2023-03-08T06:46:19.600Z,97.25
2023-03-08T06:49:22.262Z,96.51
2023-03-08T06:52:24.205Z,95.21
2023-03-08T06:55:26.159Z,96.05
2023-03-08T06:58:32.826Z,97.33
2023-03-08T07:01:37.312Z,98.11
2023-03-08T07:04:40.314Z,99.01
2023-03-08T07:07:44.128Z,99.32
2023-03-08T07:10:47.660Z,100.00
2023-03-08T07:13:53.202Z,100.00
2023-03-08T07:16:55.848Z,100.00
2023-03-08T07:20:00.161Z,100.00
2023-03-08T07:23:04.547Z,100.00
2023-03-08T07:26:07.193Z,99.84
2023-03-08T07:29:10.604Z,99.35
2023-03-08T07:32:15.952Z,98.23
2023-03-08T07:35:18.379Z,98.31
2023-03-08T07:38:20.134Z,98.47
2023-03-08T07:41:22.306Z,98.16
2023-03-08T07:44:25.767Z,100.00
2023-03-08T07:47:30.543Z,99.50
2023-03-08T07:50:34.992Z,99.84
2023-03-08T07:53:38.142Z,100.00
2023-03-08T07:56:41.556Z,100.00
2023-03-08T07:59:45.351Z,99.72
2023-03-08T08:02:47.672Z,97.25
2023-03-08T08:05:49.531Z,97.81
2023-03-08T08:08:51.755Z,95.58
2023-03-08T08:11:53.803Z,93.91
2023-03-08T08:14:59.449Z,94.54
2023-03-08T08:18:01.620Z,91.45
2023-03-08T08:21:06.218Z,91.38
2023-03-08T08:24:09.545Z,92.10
2023-03-08T08:27:12.376Z,92.11
2023-03-08T08:30:20.219Z,91.66
2023-03-08T08:33:22.216Z,89.38
2023-03-08T08:36:24.688Z,92.17
2023-03-08T08:39:26.632Z,92.07
2023-03-08T08:42:28.593Z,88.81
2023-03-08T08:45:32.192Z,89.59
2023-03-08T08:48:34.503Z,88.40
2023-03-08T08:51:36.768Z,90.33
2023-03-08T08:54:41.104Z,91.28
2023-03-08T08:57:44.209Z,90.10
2023-03-08T09:00:49.983Z,89.85
2023-03-08T09:03:52.417Z,91.36
2023-03-08T09:06:55.385Z,92.60
2023-03-08T09:09:58.432Z,93.17
2023-03-08T09:13:03.188Z,91.19
2023-03-08T09:16:07.278Z,89.04
2023-03-08T09:19:09.314Z,87.30
2023-03-08T09:22:11.583Z,88.91
2023-03-08T09:25:16.279Z,90.04
2023-03-08T09:28:18.046Z,89.08
2023-03-08T09:31:21.327Z,87.85
2023-03-08T09:34:26.004Z,89.07
2023-03-08T09:37:29.181Z,89.13
2023-03-08T09:40:39.592Z,88.36
2023-03-08T09:43:47.620Z,89.45
2023-03-08T09:46:55.888Z,85.67
2023-03-08T09:50:07.254Z,87.55
2023-03-08T09:53:21.343Z,86.02
2023-03-08T09:56:32.348Z,84.73
2023-03-08T09:59:42.086Z,80.88
2023-03-08T10:02:53.456Z,81.59
2023-03-08T10:06:03.347Z,79.30
2023-03-08T10:09:16.325Z,80.59
2023-03-08T10:12:24.106Z,81.97
2023-03-08T10:15:28.249Z,78.80
2023-03-08T10:18:37.320Z,77.93
2023-03-08T10:21:43.692Z,80.50
2023-03-08T10:24:50.686Z,79.84
2023-03-08T10:27:54.900Z,81.23
2023-03-08T10:31:01.259Z,81.12
2023-03-08T10:34:13.103Z,80.79
2023-03-08T10:37:16.662Z,80.11
2023-03-08T10:40:22.128Z,81.31
2023-03-08T10:43:28.480Z,79.14
2023-03-08T10:46:31.024Z,79.58
2023-03-08T10:49:34.493Z,74.67
2023-03-08T10:52:37.879Z,73.48
2023-03-08T10:55:46.909Z,77.19
2023-03-08T10:58:48.879Z,76.84
2023-03-08T11:01:53.061Z,75.81
2023-03-08T11:04:58.383Z,74.19
2023-03-08T11:08:02.889Z,74.98
2023-03-08T11:11:10.409Z,75.91
2023-03-08T11:14:12.367Z,74.83
2023-03-08T11:17:23.104Z,75.67
2023-03-08T11:20:33.798Z,74.26
2023-03-08T11:23:43.962Z,75.53
2023-03-08T11:26:56.449Z,74.45
2023-03-08T11:30:12.683Z,75.03
2023-03-08T11:33:50.813Z,74.02
2023-03-08T11:37:06.528Z,73.64
2023-03-08T11:40:22.199Z,74.62
2023-03-08T11:43:41.293Z,74.24
2023-03-08T11:46:53.540Z,73.88
2023-03-08T11:50:06.873Z,73.93
2023-03-08T11:53:19.530Z,74.80
2023-03-08T11:56:40.293Z,75.42
2023-03-08T11:59:47.205Z,74.35
2023-03-08T12:02:50.618Z,75.16
2023-03-08T12:05:55.968Z,73.74
2023-03-08T12:09:04.721Z,75.17
2023-03-08T12:12:13.556Z,74.73
2023-03-08T12:15:25.882Z,75.07
2023-03-08T12:18:35.863Z,74.37
2023-03-08T12:21:43.670Z,75.19
2023-03-08T12:24:58.189Z,74.89
2023-03-08T12:28:04.509Z,74.81
2023-03-08T12:31:27.815Z,75.16
2023-03-08T12:34:39.631Z,74.62
2023-03-08T12:37:41.880Z,76.28
2023-03-08T12:40:49.828Z,75.38
2023-03-08T12:44:03.664Z,73.30
2023-03-08T12:47:19.924Z,74.81
2023-03-08T12:50:25.425Z,74.05
2023-03-08T12:53:33.961Z,76.98
2023-03-08T12:56:50.154Z,78.50
2023-03-08T12:59:58.040Z,79.66
2023-03-08T13:03:03.326Z,77.19
2023-03-08T13:06:43.771Z,77.52
2023-03-08T13:09:57.503Z,79.54
2023-03-08T13:13:37.172Z,78.85
2023-03-08T13:16:40.513Z,77.37
2023-03-08T13:19:43.564Z,77.07
2023-03-08T13:22:57.199Z,78.06
2023-03-08T13:26:21.585Z,77.79
2023-03-08T13:29:34.382Z,77.52
2023-03-08T13:32:36.963Z,78.11
2023-03-08T13:35:39.795Z,78.09
2023-03-08T13:38:44.275Z,78.87
2023-03-08T13:41:48.654Z,78.15
2023-03-08T13:44:54.899Z,78.38
2023-03-08T13:48:04.285Z,77.77
2023-03-08T13:51:08.662Z,79.53
2023-03-08T13:54:16.618Z,78.59
2023-03-08T13:57:23.759Z,78.29
2023-03-08T14:00:30.380Z,78.31
2023-03-08T14:03:33.246Z,78.02
2023-03-08T14:06:35.582Z,78.13
2023-03-08T14:09:38.575Z,80.05
2023-03-08T14:12:47.246Z,81.41
2023-03-08T14:15:56.266Z,81.63
2023-03-08T14:19:00.217Z,81.51
2023-03-08T14:22:05.217Z,81.17
2023-03-08T14:25:20.503Z,81.52
2023-03-08T14:28:35.072Z,83.65
2023-03-08T14:31:40.108Z,82.64
2023-03-08T14:34:45.239Z,83.23
2023-03-08T14:37:47.327Z,83.66
2023-03-08T14:40:52.723Z,84.30
2023-03-08T14:43:54.518Z,84.51
2023-03-08T14:47:09.662Z,87.61
2023-03-08T14:50:22.733Z,88.28
2023-03-08T14:53:27.580Z,87.91
2023-03-08T14:56:30.720Z,87.04
2023-03-08T14:59:32.921Z,88.26
2023-03-08T15:02:36.393Z,89.96
2023-03-08T15:05:38.890Z,90.62
2023-03-08T15:08:40.873Z,90.85
2023-03-08T15:11:44.766Z,90.73
2023-03-08T15:14:46.925Z,91.05
2023-03-08T15:17:53.567Z,90.31
2023-03-08T15:20:59.225Z,88.63
2023-03-08T15:24:02.668Z,87.80
2023-03-08T15:27:05.672Z,87.99
2023-03-08T15:30:26.860Z,87.72
2023-03-08T15:33:30.270Z,88.57
2023-03-08T15:36:32.249Z,89.78
2023-03-08T15:39:34.496Z,89.16
2023-03-08T15:42:36.875Z,85.46
2023-03-08T15:45:39.024Z,85.91
2023-03-08T15:48:42.964Z,86.85
2023-03-08T15:51:44.735Z,87.53
2023-03-08T15:54:51.695Z,86.27
2023-03-08T15:57:53.832Z,87.11
2023-03-08T16:00:55.861Z,87.43
2023-03-08T16:03:59.379Z,87.60
2023-03-08T16:07:01.172Z,89.09
2023-03-08T16:10:05.502Z,88.22
2023-03-08T16:13:08.164Z,87.58
2023-03-08T16:16:13.106Z,85.92
2023-03-08T16:19:18.694Z,85.73
2023-03-08T16:22:20.891Z,86.13
2023-03-08T16:25:22.748Z,87.56
2023-03-08T16:28:24.576Z,86.95
2023-03-08T16:31:26.685Z,82.37
2023-03-08T16:34:30.538Z,82.93
2023-03-08T16:37:32.814Z,84.50
2023-03-08T16:40:41.935Z,85.60
2023-03-08T16:43:48.501Z,85.32
2023-03-08T16:46:51.685Z,85.71
2023-03-08T16:49:57.228Z,86.99
2023-03-08T16:52:59.218Z,88.31
2023-03-08T16:56:03.443Z,87.15
2023-03-08T16:59:06.293Z,86.72
2023-03-08T17:02:13.680Z,86.81
2023-03-08T17:05:18.866Z,88.03
2023-03-08T17:08:21.081Z,89.08
2023-03-08T17:11:25.213Z,88.46
2023-03-08T17:14:29.613Z,89.77
2023-03-08T17:17:31.603Z,89.10
2023-03-08T17:20:35.551Z,90.00
2023-03-08T17:23:38.661Z,91.50
2023-03-08T17:26:44.679Z,94.07
2023-03-08T17:29:47.035Z,94.48
2023-03-08T17:32:49.852Z,93.75
2023-03-08T17:35:56.506Z,94.04
2023-03-08T17:38:58.984Z,95.53
2023-03-08T17:42:01.177Z,96.09
2023-03-08T17:45:06.336Z,96.70
2023-03-08T17:48:08.583Z,96.83
2023-03-08T17:51:14.556Z,98.07
2023-03-08T17:54:18.989Z,98.05
2023-03-08T17:57:21.587Z,99.15
2023-03-08T18:00:25.506Z,100.00
2023-03-08T18:03:27.871Z,100.00
2023-03-08T18:06:34.919Z,100.00
2023-03-08T18:09:38.074Z,100.00
2023-03-08T18:12:42.293Z,100.00
2023-03-08T18:15:45.278Z,100.00
2023-03-08T18:18:48.467Z,100.00
2023-03-08T18:21:53.457Z,100.00
2023-03-08T18:24:56.561Z,100.00
2023-03-08T18:28:02.428Z,100.00
2023-03-08T18:31:08.368Z,100.00
2023-03-08T18:34:13.700Z,100.00
2023-03-08T18:37:17.879Z,100.00
2023-03-08T18:40:20.313Z,100.00
2023-03-08T18:43:22.573Z,100.00
2023-03-08T18:46:28.339Z,100.00
2023-03-08T18:49:33.749Z,100.00
2023-03-08T18:52:38.448Z,100.00
2023-03-08T18:55:41.359Z,100.00
2023-03-08T18:58:44.815Z,100.00
2023-03-08T19:01:47.060Z,100.00
2023-03-08T19:04:52.666Z,100.00
2023-03-08T19:07:58.694Z,100.00
2023-03-08T19:11:12.432Z,100.00
2023-03-08T19:14:17.918Z,100.00
2023-03-08T19:17:20.584Z,100.00
2023-03-08T19:20:25.493Z,100.00
2023-03-08T19:23:32.964Z,100.00
2023-03-08T19:26:38.789Z,100.00
2023-03-08T19:29:46.208Z,100.00
2023-03-08T19:32:49.682Z,100.00
2023-03-08T19:35:52.817Z,100.00
2023-03-08T19:39:00.950Z,100.00
2023-03-08T19:42:06.293Z,100.00
2023-03-08T19:45:12.629Z,100.00
2023-03-08T19:48:19.198Z,100.00
2023-03-08T19:51:22.484Z,100.00
2023-03-08T19:54:30.580Z,100.00
2023-03-08T19:57:33.553Z,100.00
2023-03-08T20:00:37.711Z,100.00
2023-03-08T20:03:41.003Z,100.00
2023-03-08T20:06:47.048Z,100.00
2023-03-08T20:10:04.598Z,100.00
2023-03-08T20:13:14.583Z,100.00
2023-03-08T20:16:19.362Z,100.00
2023-03-08T20:19:23.007Z,100.00
2023-03-08T20:22:26.295Z,100.00
2023-03-08T20:25:40.703Z,100.00
2023-03-08T20:28:44.080Z,100.00
2023-03-08T20:31:53.169Z,100.00
2023-03-08T20:34:57.542Z,100.00
2023-03-08T20:38:02.185Z,100.00
2023-03-08T20:41:09.756Z,100.00
2023-03-08T20:44:14.886Z,100.00
2023-03-08T20:47:19.387Z,100.00
2023-03-08T20:50:25.175Z,100.00
2023-03-08T20:53:30.180Z,100.00
2023-03-08T20:56:36.872Z,100.00
2023-03-08T20:59:44.495Z,100.00
2023-03-08T21:02:50.974Z,100.00
2023-03-08T21:05:57.101Z,100.00
2023-03-08T21:09:00.993Z,100.00
2023-03-08T21:12:05.884Z,100.00
2023-03-08T21:15:11.615Z,100.00
2023-03-08T21:18:17.410Z,100.00
2023-03-08T21:21:27.186Z,100.00
2023-03-08T21:24:31.572Z,100.00
2023-03-08T21:27:36.343Z,100.00
2023-03-08T21:30:39.685Z,100.00
2023-03-08T21:33:42.668Z,100.00
2023-03-08T21:36:45.578Z,100.00
2023-03-08T21:39:49.127Z,100.00
2023-03-08T21:42:55.278Z,100.00
2023-03-08T21:45:58.391Z,100.00
2023-03-08T21:49:01.352Z,100.00
2023-03-08T21:52:05.656Z,100.00
2023-03-08T21:55:08.345Z,100.00
2023-03-08T21:58:11.775Z,100.00
2023-03-08T22:01:22.216Z,100.00
2023-03-08T22:04:25.212Z,100.00
2023-03-08T22:07:27.259Z,100.00
2023-03-08T22:10:29.655Z,100.00
2023-03-08T22:13:33.422Z,100.00
2023-03-08T22:16:38.115Z,100.00
2023-03-08T22:19:40.206Z,100.00
2023-03-08T22:22:44.759Z,100.00
2023-03-08T22:25:46.552Z,100.00
2023-03-08T22:28:50.958Z,100.00
2023-03-08T22:31:52.770Z,100.00
2023-03-08T22:34:54.834Z,100.00
2023-03-08T22:38:00.512Z,100.00
2023-03-08T22:41:08.128Z,100.00
2023-03-08T22:44:12.963Z,100.00
2023-03-08T22:47:16.007Z,100.00
2023-03-08T22:50:20.596Z,100.00
2023-03-08T22:53:22.377Z,100.00
2023-03-08T22:56:29.257Z,100.00
2023-03-08T22:59:35.989Z,100.00
2023-03-08T23:02:38.267Z,100.00
2023-03-08T23:05:40.266Z,100.00
2023-03-08T23:08:44.027Z,100.00
2023-03-08T23:11:46.259Z,100.00
2023-03-08T23:14:50.075Z,100.00
2023-03-08T23:17:52.151Z,100.00
2023-03-08T23:20:53.976Z,100.00
2023-03-08T23:23:59.244Z,100.00
2023-03-08T23:27:01.036Z,100.00
2023-03-08T23:30:05.964Z,100.00
2023-03-08T23:33:07.732Z,100.00
2023-03-08T23:36:11.590Z,100.00
2023-03-08T23:39:13.811Z,100.00
2023-03-08T23:42:15.812Z,100.00
2023-03-08T23:45:26.602Z,100.00
2023-03-08T23:48:29.016Z,100.00
2023-03-08T23:51:33.776Z,100.00
2023-03-08T23:54:35.830Z,100.00
2023-03-08T23:57:37.851Z,100.00
